createdAt,value
2023-04-15T00:00:57.527Z,379.90
2023-04-15T00:03:24.682Z,388.83
2023-04-15T00:05:51.994Z,365.58
2023-04-15T00:08:18.575Z,283.98
2023-04-15T00:10:46.672Z,85.03
2023-04-15T00:13:13.476Z,53.63
2023-04-15T00:15:40.452Z,115.88
2023-04-15T00:18:08.208Z,423.88
2023-04-15T00:20:35.352Z,447.80
2023-04-15T00:23:02.619Z,456.92
2023-04-15T00:25:29.390Z,259.95
2023-04-15T00:27:55.899Z,21.70
2023-04-15T00:30:23.863Z,24.52
2023-04-15T00:32:50.574Z,93.63
2023-04-15T00:35:22.263Z,43.38
2023-04-15T00:37:50.375Z,7.32
2023-04-15T00:40:18.900Z,6.43
2023-04-15T00:42:45.711Z,7.53
2023-04-15T00:45:12.915Z,8.70
2023-04-15T00:47:42.140Z,6.47
2023-04-15T00:50:09.460Z,6.88
2023-04-15T00:52:36.222Z,9.07
2023-04-15T00:55:04.619Z,9.10
2023-04-15T00:57:31.708Z,6.18
2023-04-15T00:59:58.373Z,8.00
2023-04-15T01:02:25.045Z,6.32
2023-04-15T01:04:52.053Z,8.10
2023-04-15T01:07:18.840Z,6.22
2023-04-15T01:09:45.716Z,7.22
2023-04-15T01:12:13.158Z,5.72
2023-04-15T01:14:39.818Z,9.35
2023-04-15T01:17:06.314Z,6.85
2023-04-15T01:19:32.956Z,10.90
2023-04-15T01:21:59.465Z,7.88
2023-04-15T01:24:27.154Z,10.35
2023-04-15T01:26:54.360Z,7.45
2023-04-15T01:29:21.385Z,7.90
2023-04-15T01:31:56.088Z,8.88
2023-04-15T01:34:25.884Z,8.10
2023-04-15T01:36:53.853Z,6.88
2023-04-15T01:39:21.635Z,4.90
2023-04-15T01:41:48.606Z,7.68
2023-04-15T01:44:16.374Z,6.63
2023-04-15T01:46:43.080Z,7.40
2023-04-15T01:49:09.603Z,8.00
2023-04-15T01:51:36.101Z,8.57
2023-04-15T01:54:02.665Z,6.25
2023-04-15T01:56:29.900Z,8.38
2023-04-15T01:58:56.956Z,6.43
2023-04-15T02:01:23.732Z,8.45
2023-04-15T02:03:50.777Z,8.90
2023-04-15T02:06:21.030Z,4.72
2023-04-15T02:08:48.000Z,7.28
2023-04-15T02:11:15.431Z,9.13
2023-04-15T02:13:42.281Z,10.50
2023-04-15T02:16:21.380Z,6.63
2023-04-15T02:18:48.147Z,8.50
2023-04-15T02:21:15.201Z,9.57
2023-04-15T02:23:41.803Z,9.23
2023-04-15T02:26:08.344Z,6.63
2023-04-15T02:28:35.001Z,5.10
2023-04-15T02:31:06.443Z,7.50
2023-04-15T02:33:33.174Z,5.70
2023-04-15T02:36:00.554Z,6.15
2023-04-15T02:38:27.875Z,6.90
2023-04-15T02:40:54.610Z,8.52
2023-04-15T02:43:21.122Z,8.32
2023-04-15T02:45:48.171Z,7.75
2023-04-15T02:48:14.856Z,6.32
2023-04-15T02:50:41.373Z,6.88
2023-04-15T02:53:10.087Z,9.35
2023-04-15T02:55:36.822Z,6.13
2023-04-15T02:58:03.384Z,5.72
2023-04-15T03:00:30.140Z,8.23
2023-04-15T03:03:03.427Z,6.88
2023-04-15T03:05:30.581Z,7.00
2023-04-15T03:07:57.336Z,6.65
2023-04-15T03:10:23.928Z,8.30
2023-04-15T03:12:50.727Z,13.77
2023-04-15T03:15:19.358Z,6.97
2023-04-15T03:17:49.794Z,8.15
2023-04-15T03:20:17.097Z,7.07
2023-04-15T03:22:43.742Z,9.90
2023-04-15T03:25:10.654Z,6.05
2023-04-15T03:27:38.391Z,6.30
2023-04-15T03:30:06.650Z,8.27
2023-04-15T03:32:35.701Z,6.80
2023-04-15T03:35:02.386Z,8.60
2023-04-15T03:37:29.005Z,9.40
2023-04-15T03:39:56.524Z,14.93
2023-04-15T03:42:23.249Z,14.27
2023-04-15T03:44:49.834Z,13.77
2023-04-15T03:47:16.382Z,8.50
2023-04-15T03:49:42.900Z,8.95
2023-04-15T03:52:09.423Z,8.40
2023-04-15T03:54:36.110Z,7.00
2023-04-15T03:57:02.746Z,6.57
2023-04-15T03:59:29.364Z,6.55
2023-04-15T04:01:56.068Z,10.57
2023-04-15T04:04:22.756Z,9.02
2023-04-15T04:06:49.351Z,9.18
2023-04-15T04:09:16.230Z,10.13
2023-04-15T04:11:42.777Z,9.65
2023-04-15T04:14:09.319Z,6.38
2023-04-15T04:16:36.273Z,6.05
2023-04-15T04:19:03.210Z,9.23
2023-04-15T04:21:30.767Z,7.65
2023-04-15T04:23:57.343Z,9.23
2023-04-15T04:26:23.877Z,8.25
2023-04-15T04:28:50.698Z,7.57
2023-04-15T04:31:17.193Z,5.70
2023-04-15T04:33:43.721Z,8.88
2023-04-15T04:36:10.470Z,10.32
2023-04-15T04:38:36.987Z,9.77
2023-04-15T04:41:03.507Z,9.38
2023-04-15T04:43:30.023Z,5.38
2023-04-15T04:45:56.569Z,13.02
2023-04-15T04:48:23.106Z,9.20
2023-04-15T04:50:49.743Z,13.50
2023-04-15T04:53:16.298Z,9.85
2023-04-15T04:55:42.818Z,29.58
2023-04-15T04:58:09.349Z,33.97
2023-04-15T05:00:37.388Z,42.08
2023-04-15T05:03:04.284Z,43.03
2023-04-15T05:05:31.441Z,44.10
2023-04-15T05:07:57.961Z,49.60
2023-04-15T05:10:24.447Z,66.25
2023-04-15T05:12:51.940Z,73.03
2023-04-15T05:15:18.479Z,34.25
2023-04-15T05:17:45.139Z,41.55
2023-04-15T05:20:12.394Z,38.47
2023-04-15T05:22:38.894Z,42.60
2023-04-15T05:25:05.773Z,39.53
2023-04-15T05:27:32.282Z,33.35
2023-04-15T05:29:58.872Z,34.30
2023-04-15T05:32:25.614Z,28.30
2023-04-15T05:34:52.246Z,21.52
2023-04-15T05:37:20.888Z,23.02
2023-04-15T05:39:48.351Z,22.50
2023-04-15T05:42:14.984Z,15.60
2023-04-15T05:44:41.917Z,10.38
2023-04-15T05:47:09.684Z,7.90
2023-04-15T05:49:36.469Z,20.17
2023-04-15T05:52:03.333Z,13.60
2023-04-15T05:54:29.897Z,12.32
2023-04-15T05:56:57.627Z,16.35
2023-04-15T05:59:24.169Z,14.13
2023-04-15T06:01:52.220Z,18.15
2023-04-15T06:04:18.922Z,24.13
2023-04-15T06:06:45.585Z,47.58
2023-04-15T06:09:12.114Z,144.20
2023-04-15T06:11:38.632Z,170.02
2023-04-15T06:14:05.244Z,115.53
2023-04-15T06:16:32.297Z,226.05
2023-04-15T06:18:58.933Z,246.88
2023-04-15T06:21:25.704Z,245.88
2023-04-15T06:23:52.293Z,143.43
2023-04-15T06:26:18.803Z,239.82
2023-04-15T06:28:45.359Z,189.60
2023-04-15T06:31:11.940Z,188.35
2023-04-15T06:33:39.607Z,143.45
2023-04-15T06:36:06.311Z,302.48
2023-04-15T06:38:32.811Z,71.30
2023-04-15T06:40:59.433Z,151.95
2023-04-15T06:43:26.476Z,22.88
2023-04-15T06:45:54.929Z,19.73
2023-04-15T06:48:22.613Z,16.40
2023-04-15T06:50:49.502Z,12.20
2023-04-15T06:53:16.205Z,12.63
2023-04-15T06:55:42.759Z,13.18
2023-04-15T06:58:09.311Z,42.75
2023-04-15T07:00:38.895Z,125.75
2023-04-15T07:03:05.638Z,43.35
2023-04-15T07:05:32.478Z,30.15
2023-04-15T07:07:59.035Z,207.38
2023-04-15T07:10:31.184Z,189.02
2023-04-15T07:12:57.730Z,320.50
2023-04-15T07:15:24.229Z,172.32
2023-04-15T07:17:51.303Z,353.30
2023-04-15T07:20:17.939Z,185.70
2023-04-15T07:22:44.466Z,556.83
2023-04-15T07:25:11.135Z,549.88
2023-04-15T07:27:37.713Z,327.98
2023-04-15T07:30:04.569Z,289.85
2023-04-15T07:32:31.202Z,270.15
2023-04-15T07:34:58.498Z,102.13
2023-04-15T07:37:25.364Z,111.90
2023-04-15T07:39:54.442Z,265.50
2023-04-15T07:42:22.048Z,177.93
2023-04-15T07:44:48.689Z,484.42
2023-04-15T07:47:15.196Z,292.08
2023-04-15T07:49:43.408Z,400.85
2023-04-15T07:52:09.997Z,404.45
2023-04-15T07:54:36.529Z,360.75
2023-04-15T07:57:05.666Z,462.55
2023-04-15T07:59:33.492Z,285.10
2023-04-15T08:02:00.524Z,324.48
2023-04-15T08:04:27.511Z,513.05
2023-04-15T08:06:54.788Z,316.67
2023-04-15T08:09:21.572Z,237.23
2023-04-15T08:11:51.281Z,178.25
2023-04-15T08:14:17.895Z,132.50
2023-04-15T08:16:44.425Z,128.93
2023-04-15T08:19:11.482Z,141.90
2023-04-15T08:21:38.745Z,8.23
2023-04-15T08:24:06.176Z,43.70
2023-04-15T08:26:32.786Z,162.65
2023-04-15T08:28:59.426Z,42.67
2023-04-15T08:31:27.354Z,139.70
2023-04-15T08:36:21.530Z,162.98
2023-04-15T08:38:48.109Z,290.42
2023-04-15T08:41:23.224Z,225.75
2023-04-15T08:44:07.806Z,313.65
2023-04-15T08:46:38.450Z,234.55
2023-04-15T08:49:05.462Z,117.63
2023-04-15T08:51:32.736Z,18.75
2023-04-15T08:53:59.824Z,24.05
2023-04-15T08:56:27.032Z,6.13
2023-04-15T08:58:53.993Z,7.32
2023-04-15T09:01:21.523Z,5.40
2023-04-15T09:03:49.384Z,10.38
2023-04-15T09:08:45.728Z,9.10
2023-04-15T09:11:12.332Z,8.40
2023-04-15T09:13:39.166Z,7.15
2023-04-15T09:16:06.899Z,6.65
2023-04-15T09:18:35.597Z,7.15
2023-04-15T09:21:11.345Z,7.47
2023-04-15T09:26:37.902Z,8.93
2023-04-15T09:29:13.826Z,11.38
2023-04-15T09:31:41.199Z,8.73
2023-04-15T09:34:07.885Z,9.45
2023-04-15T09:36:54.996Z,7.25
2023-04-15T09:42:04.625Z,8.45
2023-04-15T09:44:31.376Z,7.03
2023-04-15T09:46:57.844Z,7.75
2023-04-15T09:49:24.407Z,6.80
2023-04-15T09:52:03.927Z,8.35
2023-04-15T09:54:36.607Z,6.35
2023-04-15T09:57:13.200Z,8.20
2023-04-15T09:59:40.037Z,7.40
2023-04-15T10:02:07.513Z,8.55
2023-04-15T10:04:40.795Z,6.93
2023-04-15T10:07:09.453Z,47.28
2023-04-15T10:09:36.690Z,176.77
2023-04-15T10:12:05.344Z,39.20
2023-04-15T10:14:38.380Z,30.38
2023-04-15T10:17:06.021Z,85.10
2023-04-15T10:19:34.329Z,42.40
2023-04-15T10:22:00.880Z,46.88
2023-04-15T10:24:27.880Z,240.80
2023-04-15T10:26:54.570Z,230.73
2023-04-15T10:29:21.101Z,244.40
2023-04-15T10:31:48.419Z,436.80
2023-04-15T10:34:15.983Z,351.50
2023-04-15T10:36:42.555Z,398.25
2023-04-15T10:39:34.250Z,441.35
2023-04-15T10:42:18.215Z,436.27
2023-04-15T10:44:49.138Z,405.58
2023-04-15T10:47:21.569Z,445.50
2023-04-15T10:49:59.356Z,559.10
2023-04-15T10:52:28.079Z,409.08
2023-04-15T10:55:19.343Z,468.58
2023-04-15T10:57:46.007Z,440.25
2023-04-15T11:00:16.440Z,369.98
2023-04-15T11:02:54.793Z,548.65
2023-04-15T11:05:42.698Z,682.33
2023-04-15T11:08:13.653Z,549.45
2023-04-15T11:10:40.274Z,579.35
2023-04-15T11:13:09.749Z,534.95
2023-04-15T11:15:44.855Z,539.92
2023-04-15T11:18:16.334Z,510.98
2023-04-15T11:20:45.252Z,479.80
2023-04-15T11:23:15.259Z,416.60
2023-04-15T11:25:43.001Z,382.05
2023-04-15T11:28:11.953Z,179.75
2023-04-15T11:30:39.918Z,150.18
2023-04-15T11:33:08.641Z,278.17
2023-04-15T11:35:35.951Z,193.80
2023-04-15T11:38:06.688Z,184.35
2023-04-15T11:40:33.448Z,220.40
2023-04-15T11:43:22.878Z,210.90
2023-04-15T11:45:53.436Z,332.90
2023-04-15T11:48:21.719Z,341.20
2023-04-15T11:50:57.135Z,266.52
2023-04-15T11:53:24.600Z,309.65
2023-04-15T11:55:53.060Z,351.63
2023-04-15T11:58:21.356Z,319.67
2023-04-15T12:00:56.429Z,381.30
2023-04-15T12:03:27.340Z,640.42
2023-04-15T12:06:25.587Z,668.72
2023-04-15T12:09:07.066Z,432.42
2023-04-15T12:11:39.215Z,486.13
2023-04-15T12:14:25.525Z,488.55
2023-04-15T12:16:54.397Z,556.30
2023-04-15T12:19:26.721Z,522.33
2023-04-15T12:22:00.499Z,464.42
2023-04-15T12:24:27.582Z,411.40
2023-04-15T12:26:57.331Z,574.88
2023-04-15T12:29:28.674Z,618.10
2023-04-15T12:31:57.203Z,491.75
2023-04-15T12:34:29.561Z,482.67
2023-04-15T12:36:56.833Z,442.30
2023-04-15T12:39:24.685Z,422.35
2023-04-15T12:41:52.393Z,407.17
2023-04-15T12:44:19.028Z,379.00
2023-04-15T12:46:46.199Z,341.73
2023-04-15T12:49:14.721Z,366.70
2023-04-15T12:51:41.553Z,382.90
2023-04-15T12:54:08.163Z,391.00
2023-04-15T12:56:34.719Z,393.60
2023-04-15T12:59:02.254Z,379.05
2023-04-15T13:01:28.815Z,390.38
2023-04-15T13:03:56.023Z,458.70
2023-04-15T13:06:24.040Z,402.05
2023-04-15T13:11:26.080Z,521.70
2023-04-15T13:13:53.072Z,547.75
2023-04-15T13:16:19.954Z,568.75
2023-04-15T13:18:47.004Z,502.65
2023-04-15T13:21:13.570Z,313.83
2023-04-15T13:23:41.781Z,408.13
2023-04-15T13:26:08.368Z,504.05
2023-04-15T13:28:34.877Z,553.67
2023-04-15T13:31:01.524Z,457.45
2023-04-15T13:33:28.184Z,476.85
2023-04-15T13:35:54.742Z,519.10
2023-04-15T13:38:21.372Z,315.88
2023-04-15T13:40:48.474Z,3.00
2023-04-15T13:43:15.215Z,1.80
2023-04-15T13:45:41.798Z,207.15
2023-04-15T13:48:08.415Z,367.75
2023-04-15T13:50:34.975Z,255.02
2023-04-15T13:53:01.706Z,192.20
2023-04-15T13:55:28.806Z,379.10
2023-04-15T13:57:56.801Z,413.40
2023-04-15T14:02:49.867Z,424.15
2023-04-15T14:05:17.020Z,2.90
2023-04-15T14:07:43.546Z,1.77
2023-04-15T14:10:10.228Z,2.70
2023-04-15T14:12:36.743Z,1.50
2023-04-15T14:15:03.493Z,23.65
2023-04-15T14:17:30.072Z,44.00
2023-04-15T14:19:56.648Z,96.15
2023-04-15T14:22:23.204Z,2.20
2023-04-15T14:24:49.915Z,2.13
2023-04-15T14:27:16.670Z,4.00
2023-04-15T14:29:43.198Z,203.27
2023-04-15T14:32:12.337Z,245.07
2023-04-15T14:34:39.666Z,176.43
2023-04-15T14:37:06.510Z,1.30
2023-04-15T14:39:33.074Z,1.65
2023-04-15T14:41:59.842Z,2.20
2023-04-15T14:44:26.384Z,2.45
2023-04-15T14:46:52.932Z,172.23
2023-04-15T14:49:19.744Z,210.60
2023-04-15T14:51:46.500Z,336.45
2023-04-15T14:54:13.117Z,306.30
2023-04-15T14:56:39.684Z,231.73
2023-04-15T14:59:06.316Z,367.40
2023-04-15T15:01:33.818Z,367.27
2023-04-15T15:04:00.689Z,433.23
2023-04-15T15:06:27.818Z,482.02
2023-04-15T15:08:54.369Z,430.45
2023-04-15T15:11:21.251Z,450.10
2023-04-15T15:13:47.709Z,455.85
2023-04-15T15:16:14.716Z,453.17
2023-04-15T15:18:41.414Z,475.13
2023-04-15T15:21:07.943Z,518.63
2023-04-15T15:23:34.932Z,492.00
2023-04-15T15:26:01.474Z,483.83
2023-04-15T15:28:27.970Z,465.05
2023-04-15T15:30:54.667Z,516.58
2023-04-15T15:33:21.538Z,502.38
2023-04-15T15:35:48.185Z,210.48
2023-04-15T15:38:14.865Z,412.35
2023-04-15T15:40:41.431Z,406.30
2023-04-15T15:43:08.053Z,344.35
2023-04-15T15:45:35.783Z,250.35
2023-04-15T15:48:02.462Z,271.88
2023-04-15T15:50:29.132Z,234.70
2023-04-15T15:52:55.795Z,174.65
2023-04-15T15:55:23.366Z,157.18
2023-04-15T15:57:50.062Z,159.07
2023-04-15T16:00:16.663Z,180.55
2023-04-15T16:05:13.165Z,258.35
2023-04-15T16:07:39.726Z,233.65
2023-04-15T16:10:07.474Z,230.57
2023-04-15T16:15:01.830Z,258.73
2023-04-15T16:17:28.720Z,265.90
2023-04-15T16:20:00.655Z,256.48
2023-04-15T16:22:31.566Z,249.85
2023-04-15T16:24:58.988Z,231.93
2023-04-15T16:27:25.911Z,224.73
2023-04-15T16:29:52.538Z,226.90
2023-04-15T16:32:19.884Z,191.50
2023-04-15T16:34:46.446Z,216.18
2023-04-15T16:37:13.218Z,220.13
2023-04-15T16:39:39.760Z,223.45
2023-04-15T16:42:07.369Z,215.13
2023-04-15T16:44:34.013Z,207.38
2023-04-15T16:47:02.750Z,331.02
2023-04-15T16:49:29.885Z,406.95
2023-04-15T16:51:56.409Z,433.45
2023-04-15T16:54:22.914Z,459.25
2023-04-15T16:56:49.533Z,465.20
2023-04-15T16:59:16.556Z,453.92
2023-04-15T17:01:43.300Z,483.30
2023-04-15T17:04:09.929Z,461.95
2023-04-15T17:06:36.574Z,434.52
2023-04-15T17:09:03.608Z,287.58
2023-04-15T17:11:31.259Z,247.23
2023-04-15T17:13:57.894Z,253.88
2023-04-15T17:16:25.435Z,276.23
2023-04-15T17:18:52.151Z,441.02
2023-04-15T17:21:18.634Z,452.08
2023-04-15T17:23:45.429Z,477.88
2023-04-15T17:26:11.955Z,464.30
2023-04-15T17:28:38.596Z,549.20
2023-04-15T17:31:05.326Z,495.85
2023-04-15T17:34:00.162Z,379.40
2023-04-15T17:36:18.508Z,473.65
2023-04-15T17:38:45.507Z,513.53
2023-04-15T17:41:12.101Z,533.38
2023-04-15T17:43:38.663Z,465.92
2023-04-15T17:46:07.140Z,556.55
2023-04-15T17:48:34.366Z,605.47
2023-04-15T17:51:01.340Z,660.67
2023-04-15T17:53:27.884Z,652.88
2023-04-15T17:55:54.534Z,579.63
2023-04-15T17:58:21.349Z,526.60
2023-04-15T18:00:48.284Z,160.57
2023-04-15T18:03:15.333Z,156.80
2023-04-15T18:05:42.801Z,2.13
2023-04-15T18:08:09.674Z,2.40
2023-04-15T18:10:36.738Z,58.95
2023-04-15T18:13:03.453Z,65.88
2023-04-15T18:15:33.235Z,4.18
2023-04-15T18:18:00.286Z,2.80
2023-04-15T18:20:26.976Z,2.33
2023-04-15T18:22:53.705Z,2.65
2023-04-15T18:25:20.215Z,2.55
2023-04-15T18:27:46.954Z,2.55
2023-04-15T18:30:13.480Z,2.30
2023-04-15T18:32:41.149Z,3.30
2023-04-15T18:35:08.334Z,3.85
2023-04-15T18:37:35.411Z,34.58
2023-04-15T18:40:01.931Z,3.22
2023-04-15T18:42:28.453Z,2.53
2023-04-15T18:44:55.304Z,132.18
2023-04-15T18:47:22.034Z,3.17
2023-04-15T18:49:48.590Z,2.95
2023-04-15T18:52:15.189Z,4.47
2023-04-15T18:54:41.728Z,4.55
2023-04-15T18:57:08.260Z,4.35
2023-04-15T18:59:35.253Z,5.68
2023-04-15T19:02:06.209Z,4.15
2023-04-15T19:04:33.097Z,4.20
2023-04-15T19:06:59.685Z,5.15
2023-04-15T19:09:26.782Z,8.25
2023-04-15T19:11:53.506Z,5.30
2023-04-15T19:14:20.043Z,5.35
2023-04-15T19:16:46.555Z,6.50
2023-04-15T19:19:14.706Z,4.78
2023-04-15T19:24:07.898Z,7.05
2023-04-15T19:26:34.483Z,7.97
2023-04-15T19:29:01.434Z,8.98
2023-04-15T19:31:27.922Z,7.18
2023-04-15T19:33:54.398Z,9.40
2023-04-15T19:36:21.312Z,10.60
2023-04-15T19:38:47.782Z,8.38
2023-04-15T19:41:14.523Z,9.15
2023-04-15T19:43:41.053Z,9.48
2023-04-15T19:46:07.916Z,8.05
2023-04-15T19:48:34.489Z,12.63
2023-04-15T19:51:01.131Z,11.35
2023-04-15T19:53:27.760Z,10.73
2023-04-15T19:55:54.238Z,11.25
2023-04-15T19:58:21.026Z,11.38
2023-04-15T20:00:47.543Z,13.73
2023-04-15T20:03:14.221Z,11.25
2023-04-15T20:05:40.951Z,11.15
2023-04-15T20:08:07.462Z,13.27
2023-04-15T20:10:35.267Z,12.98
2023-04-15T20:13:01.729Z,11.60
2023-04-15T20:15:28.249Z,15.77
2023-04-15T20:17:54.858Z,13.13
2023-04-15T20:20:22.233Z,18.13
2023-04-15T20:22:48.883Z,14.95
2023-04-15T20:25:15.707Z,17.38
2023-04-15T20:27:42.221Z,14.40
2023-04-15T20:30:09.158Z,15.80
2023-04-15T20:32:36.379Z,13.75
2023-04-15T20:35:04.386Z,18.52
2023-04-15T20:37:32.988Z,15.85
2023-04-15T20:40:00.296Z,16.92
2023-04-15T20:42:26.903Z,15.48
2023-04-15T20:44:53.412Z,17.05
2023-04-15T20:47:20.262Z,21.98
2023-04-15T20:49:47.445Z,17.85
2023-04-15T20:52:14.100Z,16.73
2023-04-15T20:54:40.744Z,17.33
2023-04-15T20:57:07.264Z,17.88
2023-04-15T20:59:34.812Z,18.80
2023-04-15T21:02:02.296Z,22.17
2023-04-15T21:04:28.912Z,18.83
2023-04-15T21:06:55.454Z,18.98
2023-04-15T21:09:22.024Z,32.40
2023-04-15T21:14:18.622Z,32.67
2023-04-15T21:16:45.198Z,192.07
2023-04-15T21:19:11.846Z,71.43
2023-04-15T21:21:38.477Z,42.53
2023-04-15T21:24:06.937Z,80.10
2023-04-15T21:26:33.982Z,31.75
2023-04-15T21:29:00.744Z,16.67
2023-04-15T21:31:27.262Z,446.92
2023-04-15T21:33:53.857Z,681.03
2023-04-15T21:36:20.459Z,728.38
2023-04-15T21:38:47.106Z,686.38
2023-04-15T21:41:13.602Z,623.45
2023-04-15T21:43:40.178Z,589.75
2023-04-15T21:46:24.185Z,221.45
2023-04-15T21:48:55.255Z,423.33
2023-04-15T21:51:22.140Z,492.20
2023-04-15T21:53:48.788Z,466.30
2023-04-15T21:56:15.472Z,454.58
2023-04-15T21:58:42.476Z,434.63
2023-04-15T22:01:08.980Z,574.00
2023-04-15T22:03:35.735Z,516.28
2023-04-15T22:06:03.756Z,460.85
2023-04-15T22:08:38.241Z,511.17
2023-04-15T22:11:19.578Z,319.95
2023-04-15T22:13:46.742Z,221.10
2023-04-15T22:16:13.192Z,420.10
2023-04-15T22:18:39.751Z,265.33
2023-04-15T22:21:06.319Z,294.38
2023-04-15T22:23:33.112Z,588.15
2023-04-15T22:25:59.826Z,549.78
2023-04-15T22:28:26.308Z,550.63
2023-04-15T22:30:54.524Z,454.00
2023-04-15T22:33:21.154Z,463.35
2023-04-15T22:35:47.682Z,530.00
2023-04-15T22:38:14.153Z,362.48
2023-04-15T22:40:40.663Z,318.00
2023-04-15T22:43:07.163Z,224.20
2023-04-15T22:45:34.155Z,247.25
2023-04-15T22:48:00.783Z,235.70
2023-04-15T22:50:27.471Z,255.15
2023-04-15T22:52:54.000Z,259.90
2023-04-15T22:55:20.724Z,178.02
2023-04-15T22:57:47.299Z,179.40
2023-04-15T23:00:14.279Z,182.52
2023-04-15T23:02:41.122Z,130.80
2023-04-15T23:05:12.523Z,87.95
2023-04-15T23:07:39.718Z,95.40
2023-04-15T23:10:08.060Z,108.57
2023-04-15T23:12:34.733Z,202.38
2023-04-15T23:15:01.668Z,227.45
2023-04-15T23:17:28.217Z,506.05
2023-04-15T23:19:54.729Z,367.38
2023-04-15T23:22:21.196Z,299.80
2023-04-15T23:24:47.856Z,277.75
2023-04-15T23:27:14.366Z,193.18
2023-04-15T23:29:40.891Z,154.73
2023-04-15T23:32:07.410Z,164.05
2023-04-15T23:34:33.914Z,246.70
2023-04-15T23:37:00.407Z,266.63
2023-04-15T23:39:27.055Z,277.65
2023-04-15T23:41:53.635Z,327.80
2023-04-15T23:44:20.317Z,347.75
2023-04-15T23:46:46.881Z,363.02
2023-04-15T23:49:13.438Z,263.48
2023-04-15T23:51:39.960Z,254.57
2023-04-15T23:54:06.483Z,62.08
2023-04-15T23:56:33.122Z,34.03
2023-04-15T23:58:59.654Z,39.42
